createdAt,value
2024-01-24T00:02:01.403Z,87088.94
2024-01-24T00:04:27.665Z,87089.81
2024-01-24T00:06:53.875Z,87084.47
2024-01-24T00:09:20.075Z,87087.81
2024-01-24T00:11:46.286Z,87091.34
2024-01-24T00:14:12.528Z,87097.53
2024-01-24T00:16:38.688Z,87107.38
2024-01-24T00:19:04.966Z,87116.50
2024-01-24T00:21:31.222Z,87128.84
2024-01-24T00:23:57.399Z,87141.47
2024-01-24T00:26:23.567Z,87142.63
2024-01-24T00:28:49.711Z,87126.13
2024-01-24T00:31:15.902Z,87121.16
2024-01-24T00:33:42.110Z,87128.94
2024-01-24T00:36:08.389Z,87127.59
2024-01-24T00:38:34.570Z,87136.69
2024-01-24T00:41:00.733Z,87127.75
2024-01-24T00:43:26.893Z,87135.03
2024-01-24T00:45:53.059Z,87141.59
2024-01-24T00:48:19.283Z,87139.06
2024-01-24T00:50:45.541Z,87130.59
2024-01-24T00:53:11.703Z,87140.56
2024-01-24T00:55:37.846Z,87133.72
2024-01-24T00:58:04.028Z,87145.78
2024-01-24T01:00:30.258Z,87147.75
2024-01-24T01:02:56.498Z,87134.38
2024-01-24T01:05:22.725Z,87131.59
2024-01-24T01:07:48.892Z,87123.22
2024-01-24T01:10:15.059Z,87117.75
2024-01-24T01:12:41.231Z,87105.34
2024-01-24T01:15:07.471Z,87108.31
2024-01-24T01:17:33.648Z,87110.63
2024-01-24T01:19:59.815Z,87111.31
2024-01-24T01:22:26.088Z,87117.72
2024-01-24T01:24:52.320Z,87111.88
2024-01-24T01:27:18.549Z,87103.38
2024-01-24T01:29:45.789Z,87097.56
2024-01-24T01:32:11.952Z,87102.00
2024-01-24T01:34:38.345Z,87104.78
2024-01-24T01:37:04.688Z,87092.88
2024-01-24T01:39:30.976Z,87092.53
2024-01-24T01:41:57.177Z,87093.31
2024-01-24T01:44:23.340Z,87094.31
2024-01-24T01:46:49.517Z,87083.97
2024-01-24T01:49:15.749Z,87086.50
2024-01-24T01:51:41.991Z,87084.69
2024-01-24T01:54:08.193Z,87081.38
2024-01-24T01:56:34.363Z,87081.59
2024-01-24T01:59:00.522Z,87089.69
2024-01-24T02:01:26.693Z,87079.97
2024-01-24T02:03:52.941Z,87077.31
2024-01-24T02:06:19.318Z,87077.31
2024-01-24T02:08:45.650Z,87079.88
2024-01-24T02:11:11.864Z,87073.16
2024-01-24T02:13:38.032Z,87078.47
2024-01-24T02:16:04.181Z,87095.59
2024-01-24T02:18:30.353Z,87082.34
2024-01-24T02:20:56.529Z,87087.97
2024-01-24T02:23:22.697Z,87091.44
2024-01-24T02:25:48.851Z,87081.63
2024-01-24T02:28:15.033Z,87084.03
2024-01-24T02:30:41.231Z,87105.69
2024-01-24T02:33:07.471Z,87107.88
2024-01-24T02:35:33.728Z,87097.47
2024-01-24T02:37:59.900Z,87088.53
2024-01-24T02:40:26.082Z,87088.91
2024-01-24T02:42:52.333Z,87085.75
2024-01-24T02:45:18.583Z,87076.84
2024-01-24T02:47:44.789Z,87077.25
2024-01-24T02:50:13.289Z,87070.94
2024-01-24T02:52:40.990Z,87063.06
2024-01-24T02:55:07.285Z,87070.94
2024-01-24T02:57:33.577Z,87070.56
2024-01-24T02:59:59.743Z,87065.69
2024-01-24T03:02:26.001Z,87067.06
2024-01-24T03:04:52.206Z,87059.34
2024-01-24T03:07:18.558Z,87057.94
2024-01-24T03:09:44.803Z,87054.25
2024-01-24T03:12:11.082Z,87050.44
2024-01-24T03:14:37.302Z,87047.38
2024-01-24T03:17:03.466Z,87033.56
2024-01-24T03:19:29.752Z,87038.44
2024-01-24T03:21:56.097Z,87038.34
2024-01-24T03:24:22.353Z,87039.09
2024-01-24T03:26:48.500Z,87026.72
2024-01-24T03:29:14.653Z,87031.22
2024-01-24T03:31:40.814Z,87039.53
2024-01-24T03:34:07.107Z,87022.16
2024-01-24T03:36:33.383Z,87030.66
2024-01-24T03:38:59.585Z,87034.31
2024-01-24T03:41:25.751Z,87032.69
2024-01-24T03:43:51.899Z,87030.72
2024-01-24T03:46:18.053Z,87020.28
2024-01-24T03:48:44.252Z,87023.13
2024-01-24T03:51:10.431Z,87031.53
2024-01-24T03:53:36.582Z,87032.03
2024-01-24T03:56:02.757Z,87034.19
2024-01-24T03:58:28.916Z,87048.22
2024-01-24T04:00:55.123Z,87044.13
2024-01-24T04:03:21.366Z,87047.22
2024-01-24T04:05:47.649Z,87048.75
2024-01-24T04:08:14.035Z,87031.66
2024-01-24T04:10:40.190Z,87034.91
2024-01-24T04:13:06.336Z,87046.47
2024-01-24T04:15:32.501Z,87046.38
2024-01-24T04:17:58.722Z,87044.34
2024-01-24T04:20:24.913Z,87039.81
2024-01-24T04:22:51.102Z,87041.19
2024-01-24T04:25:17.249Z,87043.25
2024-01-24T04:27:43.492Z,87054.75
2024-01-24T04:30:09.797Z,87053.97
2024-01-24T04:32:36.097Z,87047.16
2024-01-24T04:35:02.378Z,87048.66
2024-01-24T04:37:28.558Z,87043.88
2024-01-24T04:39:54.787Z,87051.25
2024-01-24T04:42:21.045Z,87055.13
2024-01-24T04:44:47.255Z,87055.94
2024-01-24T04:47:13.449Z,87055.97
2024-01-24T04:49:44.519Z,87053.25
2024-01-24T04:52:12.115Z,87061.03
2024-01-24T04:54:38.416Z,87056.66
2024-01-24T04:57:04.681Z,87043.34
2024-01-24T04:59:32.091Z,87041.34
2024-01-24T05:02:00.779Z,87060.13
2024-01-24T05:04:26.951Z,87056.88
2024-01-24T05:06:53.138Z,87063.44
2024-01-24T05:09:19.328Z,87069.75
2024-01-24T05:11:45.490Z,87060.66
2024-01-24T05:14:11.668Z,87057.16
2024-01-24T05:16:37.843Z,87060.06
2024-01-24T05:19:04.131Z,87050.94
2024-01-24T05:21:30.408Z,87057.22
2024-01-24T05:23:56.579Z,87056.09
2024-01-24T05:26:22.730Z,87051.28
2024-01-24T05:28:48.892Z,87063.38
2024-01-24T05:31:15.359Z,87071.69
2024-01-24T05:33:41.542Z,87082.63
2024-01-24T05:36:07.782Z,87073.22
2024-01-24T05:38:33.939Z,87069.59
2024-01-24T05:41:00.090Z,87073.78
2024-01-24T05:43:26.241Z,87077.50
2024-01-24T05:45:52.500Z,87075.19
2024-01-24T05:48:18.843Z,87072.91
2024-01-24T05:50:45.101Z,87085.03
2024-01-24T05:53:11.253Z,87088.28
2024-01-24T05:55:37.439Z,87084.50
2024-01-24T05:58:03.658Z,87065.44
2024-01-24T06:00:29.950Z,87085.00
2024-01-24T06:02:56.177Z,87082.06
2024-01-24T06:05:22.468Z,87088.56
2024-01-24T06:07:48.754Z,87078.34
2024-01-24T06:10:14.911Z,87084.16
2024-01-24T06:12:41.116Z,87080.16
2024-01-24T06:15:07.335Z,87082.06
2024-01-24T06:17:35.417Z,87087.88
2024-01-24T06:20:01.822Z,87081.13
2024-01-24T06:22:27.984Z,87086.97
2024-01-24T06:24:54.161Z,87093.00
2024-01-24T06:27:20.438Z,87103.34
2024-01-24T06:30:16.925Z,87116.38
2024-01-24T06:32:32.803Z,87135.66
2024-01-24T06:34:58.968Z,87138.75
2024-01-24T06:37:25.129Z,87129.19
2024-01-24T06:39:51.361Z,87138.19
2024-01-24T06:42:17.685Z,87131.56
2024-01-24T06:44:45.144Z,87141.03
2024-01-24T06:47:12.053Z,87129.91
2024-01-24T06:49:38.320Z,87135.38
2024-01-24T06:52:04.564Z,87141.59
2024-01-24T06:54:30.782Z,87128.38
2024-01-24T06:56:56.945Z,87149.56
2024-01-24T06:59:23.125Z,87151.03
2024-01-24T07:01:49.292Z,87147.56
2024-01-24T07:04:15.618Z,87143.31
2024-01-24T07:06:41.877Z,87153.44
2024-01-24T07:09:08.080Z,87157.81
2024-01-24T07:11:34.247Z,87168.09
2024-01-24T07:14:00.428Z,87168.19
2024-01-24T07:16:26.593Z,87170.59
2024-01-24T07:18:52.852Z,87177.09
2024-01-24T07:21:19.163Z,87175.81
2024-01-24T07:23:45.325Z,87172.56
2024-01-24T07:26:11.477Z,87169.38
2024-01-24T07:28:37.663Z,87168.59
2024-01-24T07:31:03.941Z,87168.31
2024-01-24T07:33:30.284Z,87170.53
2024-01-24T07:35:56.502Z,87179.72
2024-01-24T07:38:22.652Z,87182.63
2024-01-24T07:40:48.814Z,87159.25
2024-01-24T07:43:14.989Z,87158.44
2024-01-24T07:45:41.364Z,87153.06
2024-01-24T07:48:07.820Z,87152.91
2024-01-24T07:50:34.011Z,87161.16
2024-01-24T07:53:00.205Z,87158.06
2024-01-24T07:55:32.687Z,87155.09
2024-01-24T07:58:08.036Z,87160.13
2024-01-24T08:00:34.535Z,87161.91
2024-01-24T08:03:00.794Z,87159.81
2024-01-24T08:05:27.157Z,87158.06
2024-01-24T08:07:53.333Z,87155.63
2024-01-24T08:10:19.520Z,87160.06
2024-01-24T08:12:47.613Z,87154.38
2024-01-24T08:15:13.896Z,87156.41
2024-01-24T08:17:40.198Z,87163.03
2024-01-24T08:20:06.462Z,87160.78
2024-01-24T08:22:32.666Z,87164.81
2024-01-24T08:24:58.965Z,87163.63
2024-01-24T08:27:25.241Z,87170.53
2024-01-24T08:29:51.466Z,87165.22
2024-01-24T08:32:17.629Z,87168.66
2024-01-24T08:34:43.871Z,87160.03
2024-01-24T08:37:10.047Z,87170.19
2024-01-24T08:39:36.312Z,87162.97
2024-01-24T08:42:02.523Z,87159.28
2024-01-24T08:44:28.690Z,87168.28
2024-01-24T08:46:54.876Z,87173.50
2024-01-24T08:49:21.220Z,87167.03
2024-01-24T08:51:47.534Z,87165.13
2024-01-24T08:54:14.004Z,87170.44
2024-01-24T08:56:40.297Z,87181.72
2024-01-24T08:59:06.564Z,87175.16
2024-01-24T09:01:33.137Z,87180.56
2024-01-24T09:03:59.694Z,87184.13
2024-01-24T09:06:26.257Z,87188.56
2024-01-24T09:08:52.522Z,87189.66
2024-01-24T09:11:18.824Z,87187.28
2024-01-24T09:13:45.016Z,87175.03
2024-01-24T09:16:11.262Z,87173.94
2024-01-24T09:18:37.761Z,87164.41
2024-01-24T09:21:04.070Z,87152.34
2024-01-24T09:23:30.366Z,87149.78
2024-01-24T09:25:56.614Z,87151.19
2024-01-24T09:28:22.873Z,87144.00
2024-01-24T09:30:49.069Z,87138.84
2024-01-24T09:33:15.631Z,87137.09
2024-01-24T09:35:41.994Z,87148.72
2024-01-24T09:38:08.293Z,87148.44
2024-01-24T09:40:34.451Z,87133.59
2024-01-24T09:43:00.634Z,87130.56
2024-01-24T09:45:26.896Z,87123.41
2024-01-24T09:47:53.102Z,87120.50
2024-01-24T09:50:19.282Z,87123.16
2024-01-24T09:52:47.238Z,87134.00
2024-01-24T09:55:14.302Z,87135.44
2024-01-24T09:57:40.541Z,87138.78
2024-01-24T10:00:06.735Z,87145.03
2024-01-24T10:02:32.942Z,87143.56
2024-01-24T10:04:59.189Z,87152.72
2024-01-24T10:07:25.476Z,87158.94
2024-01-24T10:09:51.703Z,87158.47
2024-01-24T10:12:18.155Z,87173.31
2024-01-24T10:14:44.341Z,87194.44
2024-01-24T10:17:10.547Z,87178.81
2024-01-24T10:19:36.868Z,87175.22
2024-01-24T10:22:03.747Z,87182.97
2024-01-24T10:24:30.949Z,87174.31
2024-01-24T10:26:57.147Z,87183.72
2024-01-24T10:29:23.682Z,87178.41
2024-01-24T10:31:49.976Z,87169.75
2024-01-24T10:34:16.895Z,87173.03
2024-01-24T10:36:44.318Z,87175.47
2024-01-24T10:39:11.034Z,87180.94
2024-01-24T10:41:37.538Z,87181.19
2024-01-24T10:44:03.773Z,87182.84
2024-01-24T10:46:31.450Z,87183.75
2024-01-24T10:48:57.692Z,87193.34
2024-01-24T10:51:24.362Z,87194.00
2024-01-24T10:53:50.701Z,87197.25
2024-01-24T10:56:17.511Z,87194.09
2024-01-24T10:58:43.716Z,87183.03
2024-01-24T11:01:10.211Z,87190.16
2024-01-24T11:03:36.529Z,87200.72
2024-01-24T11:06:02.840Z,87190.59
2024-01-24T11:08:36.443Z,87183.63
2024-01-24T11:11:09.552Z,87192.78
2024-01-24T11:13:35.733Z,87182.25
2024-01-24T11:16:02.025Z,87189.00
2024-01-24T11:18:28.408Z,87180.56
2024-01-24T11:20:54.657Z,87185.03
2024-01-24T11:23:20.846Z,87179.53
2024-01-24T11:25:47.047Z,87167.06
2024-01-24T11:28:13.281Z,87167.91
2024-01-24T11:30:39.508Z,87170.09
2024-01-24T11:33:06.116Z,87166.53
2024-01-24T11:35:32.778Z,87170.66
2024-01-24T11:38:08.578Z,87155.41
2024-01-24T11:40:42.385Z,87159.53
2024-01-24T11:43:08.693Z,87156.97
2024-01-24T11:45:35.381Z,87147.91
2024-01-24T11:48:01.840Z,87144.22
2024-01-24T11:50:28.157Z,87145.19
2024-01-24T11:52:54.328Z,87144.22
2024-01-24T11:55:20.544Z,87139.88
2024-01-24T11:57:46.751Z,87135.88
2024-01-24T12:00:12.944Z,87140.69
2024-01-24T12:02:39.265Z,87140.44
2024-01-24T12:05:05.570Z,87139.47
2024-01-24T12:07:31.873Z,87136.81
2024-01-24T12:09:58.237Z,87133.78
2024-01-24T12:12:24.530Z,87123.66
2024-01-24T12:14:50.685Z,87130.41
2024-01-24T12:17:18.014Z,87117.69
2024-01-24T12:19:46.052Z,87111.34
2024-01-24T12:22:12.772Z,87114.94
2024-01-24T12:24:39.136Z,87114.84
2024-01-24T12:27:05.401Z,87114.34
2024-01-24T12:29:31.624Z,87113.97
2024-01-24T12:31:57.894Z,87094.66
2024-01-24T12:34:24.374Z,87098.84
2024-01-24T12:36:50.696Z,87078.28
2024-01-24T12:39:17.792Z,87076.09
2024-01-24T12:41:44.018Z,87077.22
2024-01-24T12:44:10.943Z,87076.28
2024-01-24T12:46:37.152Z,87061.25
2024-01-24T12:49:03.436Z,87051.56
2024-01-24T12:51:29.694Z,87051.47
2024-01-24T12:53:56.264Z,87042.94
2024-01-24T12:56:22.432Z,87032.44
2024-01-24T12:58:48.606Z,87029.44
2024-01-24T13:01:15.031Z,87025.72
2024-01-24T13:03:41.413Z,87018.03
2024-01-24T13:06:07.911Z,87028.06
2024-01-24T13:08:34.344Z,87013.88
2024-01-24T13:11:00.683Z,87009.41
2024-01-24T13:13:26.882Z,87005.00
2024-01-24T13:15:53.107Z,86999.44
2024-01-24T13:18:19.465Z,86997.09
2024-01-24T13:20:45.714Z,87010.50
2024-01-24T13:23:11.896Z,87015.25
2024-01-24T13:25:38.120Z,87009.47
2024-01-24T13:28:04.638Z,87012.78
2024-01-24T13:30:30.952Z,87031.50
2024-01-24T13:32:57.259Z,87019.16
2024-01-24T13:35:23.648Z,87017.06
2024-01-24T13:37:49.908Z,87028.25
2024-01-24T13:40:16.908Z,87015.78
2024-01-24T13:42:43.428Z,87015.78
2024-01-24T13:45:09.952Z,87008.09
2024-01-24T13:47:36.204Z,87013.88
2024-01-24T13:50:02.728Z,87009.09
2024-01-24T13:52:29.343Z,87008.88
2024-01-24T13:54:56.167Z,86998.22
2024-01-24T13:57:22.604Z,87005.88
2024-01-24T13:59:48.982Z,87003.63
2024-01-24T14:02:16.210Z,86999.91
2024-01-24T14:04:42.680Z,87006.69
2024-01-24T14:07:09.041Z,86996.13
2024-01-24T14:09:37.308Z,87005.38
2024-01-24T14:12:03.839Z,86998.34
2024-01-24T14:14:32.370Z,86992.69
2024-01-24T14:16:59.211Z,87000.69
2024-01-24T14:19:25.550Z,86999.66
2024-01-24T14:21:51.847Z,86989.44
2024-01-24T14:24:18.021Z,86989.28
2024-01-24T14:26:44.208Z,86995.47
2024-01-24T14:29:10.364Z,86987.72
2024-01-24T14:31:37.196Z,86992.94
2024-01-24T14:34:04.193Z,86998.28
2024-01-24T14:36:30.514Z,87011.81
2024-01-24T14:38:56.687Z,87015.63
2024-01-24T14:41:22.852Z,87018.63
2024-01-24T14:43:49.037Z,87031.84
2024-01-24T14:46:15.206Z,87037.84
2024-01-24T14:48:41.452Z,87047.31
2024-01-24T14:51:07.659Z,87045.16
2024-01-24T14:53:33.806Z,87057.63
2024-01-24T14:56:00.367Z,87047.31
2024-01-24T14:58:26.532Z,87046.34
2024-01-24T15:00:52.775Z,87034.13
2024-01-24T15:03:19.039Z,87037.97
2024-01-24T15:05:45.557Z,87026.94
2024-01-24T15:08:11.737Z,87032.44
2024-01-24T15:10:37.900Z,87022.63
2024-01-24T15:13:04.172Z,87019.53
2024-01-24T15:15:30.490Z,87019.53
2024-01-24T15:17:56.823Z,87029.81
2024-01-24T15:20:23.064Z,87031.75
2024-01-24T15:22:49.512Z,87036.72
2024-01-24T15:25:17.420Z,87035.28
2024-01-24T15:27:43.801Z,87024.78
2024-01-24T15:30:10.033Z,87027.81
2024-01-24T15:32:36.227Z,87030.13
2024-01-24T15:35:02.506Z,87032.84
2024-01-24T15:37:28.814Z,87035.81
2024-01-24T15:39:55.123Z,87029.97
2024-01-24T15:42:21.372Z,87028.44
2024-01-24T15:44:47.599Z,87034.03
2024-01-24T15:47:13.883Z,87035.16
2024-01-24T15:49:40.103Z,87030.91
2024-01-24T15:52:06.418Z,87032.91
2024-01-24T15:54:32.730Z,87032.78
2024-01-24T15:56:58.966Z,87030.75
2024-01-24T15:59:25.244Z,87034.03
2024-01-24T16:01:51.549Z,87029.56
2024-01-24T16:04:17.990Z,87036.13
2024-01-24T16:06:44.264Z,87039.97
2024-01-24T16:09:10.660Z,87042.94
2024-01-24T16:11:36.871Z,87055.94
2024-01-24T16:14:03.037Z,87060.41
2024-01-24T16:16:29.250Z,87075.94
2024-01-24T16:18:55.492Z,87077.25
2024-01-24T16:21:21.733Z,87077.16
2024-01-24T16:23:47.898Z,87084.47
2024-01-24T16:26:14.062Z,87077.50
2024-01-24T16:28:40.232Z,87088.34
2024-01-24T16:31:06.454Z,87091.13
2024-01-24T16:33:32.839Z,87104.06
2024-01-24T16:35:59.110Z,87096.00
2024-01-24T16:38:25.297Z,87091.56
2024-01-24T16:40:51.545Z,87102.75
2024-01-24T16:43:17.726Z,87090.00
2024-01-24T16:45:43.950Z,87106.72
2024-01-24T16:48:10.269Z,87092.34
2024-01-24T16:50:36.480Z,87086.81
2024-01-24T16:53:02.669Z,87087.81
2024-01-24T16:55:28.844Z,87085.94
2024-01-24T16:57:55.056Z,87089.75
2024-01-24T17:00:21.332Z,87089.00
2024-01-24T17:02:51.714Z,87093.19
2024-01-24T17:05:24.077Z,87088.03
2024-01-24T17:07:50.267Z,87088.09
2024-01-24T17:10:17.097Z,87094.66
2024-01-24T17:12:43.401Z,87089.91
2024-01-24T17:15:09.621Z,87097.88
2024-01-24T17:17:35.838Z,87095.69
2024-01-24T17:20:02.114Z,87089.09
2024-01-24T17:22:36.083Z,87099.94
2024-01-24T17:25:02.357Z,87098.59
2024-01-24T17:27:28.651Z,87101.25
2024-01-24T17:29:54.833Z,87107.09
2024-01-24T17:32:21.015Z,87108.91
2024-01-24T17:34:47.214Z,87103.31
2024-01-24T17:37:13.527Z,87109.59
2024-01-24T17:39:40.000Z,87111.28
2024-01-24T17:42:06.229Z,87120.31
2024-01-24T17:44:32.538Z,87128.22
2024-01-24T17:46:58.773Z,87124.31
2024-01-24T17:49:25.049Z,87131.09
2024-01-24T17:51:51.282Z,87132.47
2024-01-24T17:54:17.529Z,87133.97
2024-01-24T17:56:43.728Z,87144.75
2024-01-24T17:59:09.911Z,87132.44
2024-01-24T18:01:36.400Z,87141.47
2024-01-24T18:04:02.700Z,87133.72
2024-01-24T18:06:28.921Z,87136.81
2024-01-24T18:08:55.127Z,87137.09
2024-01-24T18:11:21.306Z,87139.19
2024-01-24T18:13:47.471Z,87136.66
2024-01-24T18:16:13.647Z,87132.88
2024-01-24T18:18:39.893Z,87125.00
2024-01-24T18:21:07.942Z,87134.03
2024-01-24T18:23:35.390Z,87131.56
2024-01-24T18:26:01.552Z,87128.03
2024-01-24T18:28:27.724Z,87125.97
2024-01-24T18:30:53.959Z,87121.13
2024-01-24T18:33:20.314Z,87118.25
2024-01-24T18:35:46.605Z,87108.94
2024-01-24T18:38:12.756Z,87104.34
2024-01-24T18:40:38.932Z,87117.38
2024-01-24T18:43:05.220Z,87102.13
2024-01-24T18:45:31.656Z,87105.03
2024-01-24T18:47:57.968Z,87101.59
2024-01-24T18:50:24.383Z,87102.75
2024-01-24T18:52:50.612Z,87098.28
2024-01-24T18:55:16.966Z,87097.03
2024-01-24T18:57:43.352Z,87100.47
2024-01-24T19:00:09.735Z,87094.06
2024-01-24T19:02:36.028Z,87097.31
2024-01-24T19:05:02.488Z,87090.69
2024-01-24T19:07:29.043Z,87095.25
2024-01-24T19:09:55.267Z,87092.75
2024-01-24T19:12:21.490Z,87095.53
2024-01-24T19:14:47.657Z,87093.69
2024-01-24T19:17:14.142Z,87092.50
2024-01-24T19:19:40.514Z,87090.00
2024-01-24T19:22:06.870Z,87091.31
2024-01-24T19:24:33.098Z,87087.31
2024-01-24T19:26:59.540Z,87082.22
2024-01-24T19:29:25.910Z,87084.47
2024-01-24T19:31:52.151Z,87081.84
2024-01-24T19:34:18.759Z,87068.59
2024-01-24T19:36:45.170Z,87063.91
2024-01-24T19:39:11.410Z,87064.34
2024-01-24T19:41:37.586Z,87062.38
2024-01-24T19:44:03.841Z,87056.75
2024-01-24T19:46:29.997Z,87046.72
2024-01-24T19:48:56.257Z,87052.59
2024-01-24T19:51:22.521Z,87056.22
2024-01-24T19:53:48.693Z,87045.66
2024-01-24T19:56:14.862Z,87040.69
2024-01-24T19:58:41.030Z,87045.22
2024-01-24T20:01:07.313Z,87055.34
2024-01-24T20:03:33.684Z,87054.22
2024-01-24T20:05:59.933Z,87032.84
2024-01-24T20:08:26.097Z,87038.44
2024-01-24T20:10:52.274Z,87039.34
2024-01-24T20:13:18.421Z,87034.81
2024-01-24T20:15:44.745Z,87034.81
2024-01-24T20:18:10.961Z,87034.91
2024-01-24T20:20:37.158Z,87031.75
2024-01-24T20:23:03.362Z,87021.25
2024-01-24T20:25:29.540Z,87027.19
2024-01-24T20:27:55.985Z,87023.03
2024-01-24T20:30:22.201Z,87023.81
2024-01-24T20:32:57.219Z,87025.91
2024-01-24T20:35:27.856Z,87021.09
2024-01-24T20:37:54.044Z,87032.13
2024-01-24T20:40:20.206Z,87028.69
2024-01-24T20:42:46.427Z,87031.88
2024-01-24T20:45:12.600Z,87026.31
2024-01-24T20:47:38.792Z,87031.25
2024-01-24T20:50:05.134Z,87039.69
2024-01-24T20:52:31.364Z,87036.03
2024-01-24T20:54:57.559Z,87035.72
2024-01-24T20:57:23.762Z,87048.41
2024-01-24T20:59:50.011Z,87046.50
2024-01-24T21:02:16.549Z,87033.94
2024-01-24T21:04:43.088Z,87033.94
2024-01-24T21:07:09.427Z,87032.41
2024-01-24T21:09:35.620Z,87030.59
2024-01-24T21:12:01.888Z,87036.91
2024-01-24T21:14:28.063Z,87033.50
2024-01-24T21:16:54.226Z,87038.34
2024-01-24T21:19:20.418Z,87041.59
2024-01-24T21:21:46.896Z,87029.94
2024-01-24T21:24:13.214Z,87037.81
2024-01-24T21:26:39.392Z,87049.13
2024-01-24T21:29:05.546Z,87042.25
2024-01-24T21:31:31.720Z,87030.88
2024-01-24T21:33:57.937Z,87036.84
2024-01-24T21:36:24.180Z,87030.97
2024-01-24T21:38:50.997Z,87016.88
2024-01-24T21:41:17.365Z,87014.44
2024-01-24T21:43:43.530Z,87019.31
2024-01-24T21:46:09.727Z,87011.91
2024-01-24T21:48:36.048Z,87020.84
2024-01-24T21:51:02.246Z,87012.63
2024-01-24T21:53:28.435Z,87014.97
2024-01-24T21:55:54.612Z,87020.13
2024-01-24T21:58:20.782Z,87017.34
2024-01-24T22:00:47.104Z,87014.97
2024-01-24T22:03:13.316Z,87018.03
2024-01-24T22:05:39.493Z,87018.22
2024-01-24T22:08:05.658Z,87019.09
2024-01-24T22:10:32.379Z,87011.34
2024-01-24T22:12:58.869Z,87013.41
2024-01-24T22:15:25.097Z,87014.22
2024-01-24T22:17:51.313Z,87020.41
2024-01-24T22:20:17.533Z,87023.28
2024-01-24T22:22:43.950Z,87019.75
2024-01-24T22:25:10.269Z,87015.16
2024-01-24T22:27:36.584Z,87016.13
2024-01-24T22:30:02.763Z,87025.41
2024-01-24T22:32:28.998Z,87015.31
2024-01-24T22:34:55.249Z,87027.59
2024-01-24T22:37:21.540Z,87034.66
2024-01-24T22:39:47.860Z,87029.25
2024-01-24T22:42:14.093Z,87024.66
2024-01-24T22:44:40.259Z,87027.03
2024-01-24T22:47:06.437Z,87029.41
2024-01-24T22:49:32.729Z,87031.13
2024-01-24T22:51:59.052Z,87044.47
2024-01-24T22:54:25.320Z,87040.50
2024-01-24T22:56:51.465Z,87041.31
2024-01-24T22:59:17.640Z,87034.91
2024-01-24T23:01:43.954Z,87034.00
2024-01-24T23:04:10.282Z,87040.09
2024-01-24T23:06:36.706Z,87046.53
2024-01-24T23:09:02.914Z,87043.53
2024-01-24T23:11:29.075Z,87050.09
2024-01-24T23:13:55.262Z,87047.09
2024-01-24T23:16:21.670Z,87044.69
2024-01-24T23:18:47.993Z,87041.84
2024-01-24T23:21:14.161Z,87052.38
2024-01-24T23:23:40.325Z,87047.31
2024-01-24T23:26:06.561Z,87049.16
2024-01-24T23:28:32.841Z,87050.16
2024-01-24T23:30:59.096Z,87051.88
2024-01-24T23:33:25.416Z,87051.22
2024-01-24T23:35:51.602Z,87037.72
2024-01-24T23:38:17.791Z,87044.28
2024-01-24T23:40:43.989Z,87034.13
2024-01-24T23:43:10.191Z,87034.34
2024-01-24T23:45:36.416Z,87026.94
2024-01-24T23:48:02.851Z,87030.22
2024-01-24T23:50:29.437Z,87025.84
2024-01-24T23:52:55.726Z,87018.19
2024-01-24T23:55:22.035Z,87019.41
2024-01-24T23:57:48.348Z,87028.47
